Meteo Giornale » Osservazioni meteo Italia » Milano-Malpensa

ore: 09:50 - Osservazioni Meteo Milano-Malpensa
Lat. 45° 37' N Lon. 8° 44' E Alt. 234 metri s.l.m.

sereno Europe/Rome

5 °C

Sereno

Temp. 24 Ore

-2 °C

11 °C

Nord

11.1 Km/h

Dew point 1 °C

Umidità 75 %

Visibilità  10 Km

Il sole sorge alle ore 07:56

Il sole tramonta alle ore 17:14

Data e Ora Cielo e Fenomeni T °C DP °C Um. % Pres. hPa Vis. km Vento km/h
Oggi h: 09:50 sereno Sereno 5 1 75 1008 10 N 11.1
Oggi h: 09:20 sereno Sereno 2 0 86 1008 10 N 9.3
Oggi h: 08:50 sereno Sereno -0 -2 86 1007 10 N 9.3
Oggi h: 08:20 sereno Sereno -0 -1 92 1007 10 N 9.3
Oggi h: 07:50 sereno Sereno 0 -2 86 1007 10 N 11.1
Oggi h: 07:20 sereno Sereno -1 -3 86 1007 10 N 13
Oggi h: 06:50 sereno Sereno 0 -2 86 1007 10 N 13
Oggi h: 06:20 nuvoloso Nuvoloso -1 -2 92 1007 10 N 13
Oggi h: 05:50 nuvoloso Nuvoloso -1 -2 92 1007 10 N 13
Oggi h: 05:20 sereno Sereno -2 -3 92 1007 10 N 9.3
Oggi h: 04:50 sereno Sereno 1 -0 93 1008 10 N/NO 7.4
Oggi h: 04:20 sereno Sereno -1 -2 92 1008 10 N/NE 7.4
Oggi h: 03:50 sereno Sereno -1 -2 92 1008 10 N 9.3
Oggi h: 03:20 sereno Sereno -1 -3 86 1009 10 N/NE 7.4
Oggi h: 02:50 sereno Sereno -1 -2 92 1009 10 N 9.3
Oggi h: 02:20 molto_nuvoloso Molto Nuvoloso -1 -2 92 1009 10 N 9.3
Oggi h: 01:50 sereno Sereno 0 -1 92 1009 10 N/NO 9.3
Oggi h: 01:20 sereno Sereno -0 -2 86 1009 10 N 11.1
Oggi h: 00:50 sereno Sereno -0 -2 86 1010 10 N 13
Oggi h: 00:20 sereno Sereno -0 -2 86 1010 10 N/NE 11.1
Ieri h: 23:50 sereno Sereno -1 -4 80 1010 10 N 9.3
Ieri h: 23:20 sereno Sereno 0 -3 80 1010 10 N 11.1
Ieri h: 22:50 sereno Sereno 0 -3 80 1010 10 N 13
Ieri h: 22:20 sereno Sereno 2 -3 69 1011 10 N/NO 7.4
Ieri h: 21:50 sereno Sereno 1 -3 74 1011 10 N/NE 9.3
Ieri h: 21:20 sereno Sereno -0 -4 74 1010 10 N/NE 9.3
Ieri h: 20:50 sereno Sereno 1 -4 69 1011 10 N 9.3
Ieri h: 20:20 sereno Sereno 1 -4 69 1011 10 N 7.4
Ieri h: 19:50 sereno Sereno -0 -4 74 1011 10 N 7.4
Ieri h: 19:20 sereno Sereno 3 -5 55 1011 10 N/NE 7.4
Ieri h: 18:50 sereno Sereno 3 -5 55 1011 10 N 3.7
Ieri h: 17:50 sereno Sereno 6 -7 38 1011 10 N 1.8
Ieri h: 17:20 sereno Sereno 9 -7 31 1011 10 N 3.7
Ieri h: 16:50 sereno Sereno 10 -7 29 1011 10 NO 7.4
Ieri h: 16:20 sereno Sereno 11 -8 25 1011 10 O/NO 7.4
Ieri h: 15:50 sereno Sereno 11 -8 25 1011 10 N 5.5
Ieri h: 15:20 sereno Sereno 11 -8 25 1012 10 N/NO 9.3
Ieri h: 14:50 sereno Sereno 11 -6 29 1012 10 NO 11.1
Ieri h: 14:20 sereno Sereno 11 -5 32 1013 10 O/NO 7.4
Ieri h: 13:50 sereno Sereno 11 -6 29 1013 10 N 5.5
Ieri h: 13:20 sereno Sereno 11 -8 25 1014 10 N 3.7
Ieri h: 12:50 sereno Sereno 10 -7 29 1014 10 N 7.4
Ieri h: 12:20 sereno Sereno 9 -6 33 1014 10 N 9.3
Ieri h: 11:50 sereno Sereno 9 -4 39 1015 10 N 13
Ieri h: 11:20 sereno Sereno 8 -3 45 1015 10 N 11.1
Ieri h: 10:50 sereno Sereno 7 -2 52 1015 10 N 9.3
Ieri h: 10:20 sereno Sereno 5 -1 65 1015 10 N 13
Ieri h: 09:50 sereno Sereno 4 -1 69 1015 10 N 11.1